Secretary, Maryland
Current Conditions -  °F | °C
As of 11:35 AM on Friday 21 Nov 2014 (Local Time) from KCGE Reporting Station
Scattered Clouds Scattered Clouds  
Wind Chill: 26°   Ceiling: Unl
Heat Index: 36°   Visibility: 10mi
Dew Point: 10°   Wind: 16mph
Humidity: 35%   Direction: 320°NW
Pressure: 30.43"   Gusts: 21mph
Location:  38.61°N, 75.95°W
Report Text: KCGE 211635Z AUTO 32014G18KT 10SM SCT055 02/M12 A3043 RMK AO1
Loading
Personal Weather Stations






























Interactive Weather Map New forecast layout! Learn more

10-Day Weather Forecast

Advertisements
Track Severe Weather on mobile